Terminal Aerodrome Forecast
Issued by NWS

Home | Current Version | Previous Version | Text Only | Print | Product List | Glossary On
Versions: 1 2 3 4 5 6 7 8 9 10 11 12 13 14 15 16 17
000
FTUS41 KBGM 282300
TAFRME
TAF
KRME 282320Z 0100/0124 VRB04KT P6SM SCT180
     FM011000 11005KT P6SM OVC100
     FM011300 14007KT P6SM OVC040
      TEMPO 0113/0117 2SM -SN BR OVC025
     FM011700 15008KT 2SM -SN BR OVC015=

USA.gov is the U.S. government's official web portal to all federal, state and local government web resources and services.